sensor_id;sensor_type;location;lat;lon;timestamp;pressure;altitude;pressure_sealevel;temperature;humidity
51313;BME280;37397;53.226;10.400;2022-07-09T00:01:07;102172.44;;;18.89;53.81
51313;BME280;37397;53.226;10.400;2022-07-09T00:03:34;102173.72;;;18.88;53.77
51313;BME280;37397;53.226;10.400;2022-07-09T00:06:01;102156.88;;;18.87;53.69
51313;BME280;37397;53.226;10.400;2022-07-09T00:08:29;102160.31;;;18.85;53.90
51313;BME280;37397;53.226;10.400;2022-07-09T00:10:56;102177.94;;;18.87;53.70
51313;BME280;37397;53.226;10.400;2022-07-09T00:13:22;102163.19;;;18.85;54.07
51313;BME280;37397;53.226;10.400;2022-07-09T00:15:49;102168.34;;;18.81;53.91
51313;BME280;37397;53.226;10.400;2022-07-09T00:18:16;102164.19;;;18.82;54.03
51313;BME280;37397;53.226;10.400;2022-07-09T00:20:43;102164.50;;;18.84;53.94
51313;BME280;37397;53.226;10.400;2022-07-09T00:23:10;102162.84;;;18.83;53.99
51313;BME280;37397;53.226;10.400;2022-07-09T00:25:36;102172.84;;;18.82;53.92
51313;BME280;37397;53.226;10.400;2022-07-09T00:28:03;102163.59;;;18.78;53.90
51313;BME280;37397;53.226;10.400;2022-07-09T00:30:30;102156.72;;;18.75;54.19
51313;BME280;37397;53.226;10.400;2022-07-09T00:32:57;102154.63;;;18.76;53.97
51313;BME280;37397;53.226;10.400;2022-07-09T00:35:23;102154.91;;;18.78;54.18
51313;BME280;37397;53.226;10.400;2022-07-09T00:37:50;102162.81;;;18.77;54.20
51313;BME280;37397;53.226;10.400;2022-07-09T00:40:16;102153.03;;;18.75;54.16
51313;BME280;37397;53.226;10.400;2022-07-09T00:42:43;102158.81;;;18.75;54.25
51313;BME280;37397;53.226;10.400;2022-07-09T00:45:09;102148.50;;;18.68;54.31
51313;BME280;37397;53.226;10.400;2022-07-09T00:47:36;102147.47;;;18.71;54.19
51313;BME280;37397;53.226;10.400;2022-07-09T00:50:03;102152.75;;;18.73;54.14
51313;BME280;37397;53.226;10.400;2022-07-09T00:52:31;102154.56;;;18.70;54.54
51313;BME280;37397;53.226;10.400;2022-07-09T00:55:02;102147.69;;;18.68;54.44
51313;BME280;37397;53.226;10.400;2022-07-09T00:57:29;102149.00;;;18.67;54.47
51313;BME280;37397;53.226;10.400;2022-07-09T00:59:57;102143.22;;;18.67;54.60
51313;BME280;37397;53.226;10.400;2022-07-09T01:02:24;102145.00;;;18.64;54.58
51313;BME280;37397;53.226;10.400;2022-07-09T01:04:51;102141.59;;;18.66;54.62
51313;BME280;37397;53.226;10.400;2022-07-09T01:07:18;102138.44;;;18.64;54.43
51313;BME280;37397;53.226;10.400;2022-07-09T01:09:44;102136.06;;;18.62;54.80
51313;BME280;37397;53.226;10.400;2022-07-09T01:12:11;102123.69;;;18.62;54.36
51313;BME280;37397;53.226;10.400;2022-07-09T01:14:37;102121.31;;;18.60;54.53
51313;BME280;37397;53.226;10.400;2022-07-09T01:17:05;102121.03;;;18.58;54.76
51313;BME280;37397;53.226;10.400;2022-07-09T01:19:33;102122.31;;;18.57;54.93
51313;BME280;37397;53.226;10.400;2022-07-09T01:22:00;102097.53;;;18.50;54.67
51313;BME280;37397;53.226;10.400;2022-07-09T01:24:33;102103.59;;;18.52;54.63
51313;BME280;37397;53.226;10.400;2022-07-09T01:27:00;102108.09;;;18.53;54.59
51313;BME280;37397;53.226;10.400;2022-07-09T01:29:27;102110.69;;;18.51;54.71
51313;BME280;37397;53.226;10.400;2022-07-09T01:31:53;102109.34;;;18.47;54.98
51313;BME280;37397;53.226;10.400;2022-07-09T01:34:20;102113.78;;;18.48;54.86
51313;BME280;37397;53.226;10.400;2022-07-09T01:36:46;102115.63;;;18.45;54.96
51313;BME280;37397;53.226;10.400;2022-07-09T01:39:13;102113.75;;;18.42;54.99
51313;BME280;37397;53.226;10.400;2022-07-09T01:41:40;102118.19;;;18.43;55.02
51313;BME280;37397;53.226;10.400;2022-07-09T01:44:06;102114.53;;;18.43;55.27
51313;BME280;37397;53.226;10.400;2022-07-09T01:46:34;102112.13;;;18.41;55.22
51313;BME280;37397;53.226;10.400;2022-07-09T01:49:01;102105.75;;;18.37;55.34
51313;BME280;37397;53.226;10.400;2022-07-09T01:51:28;102105.50;;;18.35;55.48
51313;BME280;37397;53.226;10.400;2022-07-09T01:53:54;102104.69;;;18.34;55.40
51313;BME280;37397;53.226;10.400;2022-07-09T01:56:21;102094.94;;;18.32;55.29
51313;BME280;37397;53.226;10.400;2022-07-09T01:58:47;102081.50;;;18.29;55.21
51313;BME280;37397;53.226;10.400;2022-07-09T02:01:14;102099.16;;;18.31;55.43
51313;BME280;37397;53.226;10.400;2022-07-09T02:03:41;102091.47;;;18.28;55.51
51313;BME280;37397;53.226;10.400;2022-07-09T02:06:07;102094.38;;;18.28;55.40
51313;BME280;37397;53.226;10.400;2022-07-09T02:08:34;102101.44;;;18.27;55.47
51313;BME280;37397;53.226;10.400;2022-07-09T02:11:01;102086.44;;;18.22;55.84
51313;BME280;37397;53.226;10.400;2022-07-09T02:13:28;102082.22;;;18.23;55.67
51313;BME280;37397;53.226;10.400;2022-07-09T02:15:55;102087.22;;;18.23;55.74
51313;BME280;37397;53.226;10.400;2022-07-09T02:18:21;102084.03;;;18.21;55.70
51313;BME280;37397;53.226;10.400;2022-07-09T02:20:48;102079.06;;;18.21;55.75
51313;BME280;37397;53.226;10.400;2022-07-09T02:23:15;102074.06;;;18.22;55.86
51313;BME280;37397;53.226;10.400;2022-07-09T02:25:41;102071.66;;;18.20;55.76
51313;BME280;37397;53.226;10.400;2022-07-09T02:28:08;102068.50;;;18.18;56.37
51313;BME280;37397;53.226;10.400;2022-07-09T02:30:34;102060.63;;;18.19;56.19
51313;BME280;37397;53.226;10.400;2022-07-09T02:33:03;102067.22;;;18.19;56.24
51313;BME280;37397;53.226;10.400;2022-07-09T02:35:30;102064.50;;;18.16;56.30
51313;BME280;37397;53.226;10.400;2022-07-09T02:37:57;102071.91;;;18.17;56.52
51313;BME280;37397;53.226;10.400;2022-07-09T02:40:23;102071.31;;;18.13;56.44
51313;BME280;37397;53.226;10.400;2022-07-09T02:42:50;102071.91;;;18.17;56.58
51313;BME280;37397;53.226;10.400;2022-07-09T02:45:16;102066.63;;;18.15;56.21
51313;BME280;37397;53.226;10.400;2022-07-09T02:47:43;102070.78;;;18.14;56.36
51313;BME280;37397;53.226;10.400;2022-07-09T02:50:09;102069.22;;;18.13;56.76
51313;BME280;37397;53.226;10.400;2022-07-09T02:52:36;102070.50;;;18.12;56.44
51313;BME280;37397;53.226;10.400;2022-07-09T02:55:02;102067.13;;;18.14;56.84
51313;BME280;37397;53.226;10.400;2022-07-09T02:57:29;102071.31;;;18.13;56.69
51313;BME280;37397;53.226;10.400;2022-07-09T02:59:55;102066.34;;;18.13;56.69
51313;BME280;37397;53.226;10.400;2022-07-09T03:02:22;102056.34;;;18.14;56.67
51313;BME280;37397;53.226;10.400;2022-07-09T03:04:49;102055.78;;;18.10;56.79
51313;BME280;37397;53.226;10.400;2022-07-09T03:07:15;102059.75;;;18.13;56.87
51313;BME280;37397;53.226;10.400;2022-07-09T03:09:42;102061.56;;;18.10;56.95
51313;BME280;37397;53.226;10.400;2022-07-09T03:12:08;102054.19;;;18.09;57.05
51313;BME280;37397;53.226;10.400;2022-07-09T03:14:35;102058.41;;;18.08;57.02
51313;BME280;37397;53.226;10.400;2022-07-09T03:17:01;102052.63;;;18.08;57.02
51313;BME280;37397;53.226;10.400;2022-07-09T03:19:28;102058.41;;;18.08;57.08
51313;BME280;37397;53.226;10.400;2022-07-09T03:21:54;102066.75;;;18.06;57.35
51313;BME280;37397;53.226;10.400;2022-07-09T03:24:21;102053.63;;;18.05;57.16
51313;BME280;37397;53.226;10.400;2022-07-09T03:26:48;102043.66;;;18.06;57.22
51313;BME280;37397;53.226;10.400;2022-07-09T03:29:15;102047.53;;;18.03;57.10
51313;BME280;37397;53.226;10.400;2022-07-09T03:31:41;102041.06;;;18.08;56.98
51313;BME280;37397;53.226;10.400;2022-07-09T03:34:08;102043.66;;;18.06;57.27
51313;BME280;37397;53.226;10.400;2022-07-09T03:36:34;102034.97;;;18.06;57.54
51313;BME280;37397;53.226;10.400;2022-07-09T03:39:02;102028.91;;;18.04;57.44
51313;BME280;37397;53.226;10.400;2022-07-09T03:41:28;102037.06;;;18.06;57.70
51313;BME280;37397;53.226;10.400;2022-07-09T03:43:55;102039.19;;;18.05;57.34
51313;BME280;37397;53.226;10.400;2022-07-09T03:46:21;102046.25;;;18.04;57.54
51313;BME280;37397;53.226;10.400;2022-07-09T03:48:50;102034.69;;;18.04;57.43
51313;BME280;37397;53.226;10.400;2022-07-09T03:51:16;102044.47;;;18.07;57.29
51313;BME280;37397;53.226;10.400;2022-07-09T03:53:43;102033.09;;;18.03;57.72
51313;BME280;37397;53.226;10.400;2022-07-09T03:56:10;102030.50;;;18.05;57.81
51313;BME280;37397;53.226;10.400;2022-07-09T03:58:36;102018.97;;;18.05;57.87
51313;BME280;37397;53.226;10.400;2022-07-09T04:01:04;102024.22;;;18.07;57.77
51313;BME280;37397;53.226;10.400;2022-07-09T04:03:30;102033.69;;;18.07;57.94
51313;BME280;37397;53.226;10.400;2022-07-09T04:05:57;102028.91;;;18.04;58.22
51313;BME280;37397;53.226;10.400;2022-07-09T04:08:23;102017.94;;;18.08;58.18
51313;BME280;37397;53.226;10.400;2022-07-09T04:10:50;102024.22;;;18.07;58.16
51313;BME280;37397;53.226;10.400;2022-07-09T04:13:16;102021.34;;;18.07;58.14
51313;BME280;37397;53.226;10.400;2022-07-09T04:15:43;102024.00;;;18.10;58.43
51313;BME280;37397;53.226;10.400;2022-07-09T04:18:09;102027.91;;;18.07;58.27
51313;BME280;37397;53.226;10.400;2022-07-09T04:20:36;102026.31;;;18.06;58.40
51313;BME280;37397;53.226;10.400;2022-07-09T04:23:03;102025.31;;;18.09;58.40
51313;BME280;37397;53.226;10.400;2022-07-09T04:25:29;102010.56;;;18.07;58.51
51313;BME280;37397;53.226;10.400;2022-07-09T04:27:56;102000.41;;;18.12;58.62
51313;BME280;37397;53.226;10.400;2022-07-09T04:30:22;101992.22;;;18.10;58.72
51313;BME280;37397;53.226;10.400;2022-07-09T04:32:49;101986.72;;;18.12;58.58
51313;BME280;37397;53.226;10.400;2022-07-09T04:35:15;101982.56;;;18.13;58.24
51313;BME280;37397;53.226;10.400;2022-07-09T04:37:42;101984.63;;;18.13;58.26
51313;BME280;37397;53.226;10.400;2022-07-09T04:40:10;101989.41;;;18.16;58.52
51313;BME280;37397;53.226;10.400;2022-07-09T04:42:36;101986.00;;;18.17;58.61
51313;BME280;37397;53.226;10.400;2022-07-09T04:45:04;101991.00;;;18.17;58.61
51313;BME280;37397;53.226;10.400;2022-07-09T04:47:31;101993.88;;;18.17;58.32
51313;BME280;37397;53.226;10.400;2022-07-09T04:49:57;101998.38;;;18.18;58.58
51313;BME280;37397;53.226;10.400;2022-07-09T04:52:24;101994.16;;;18.19;58.43
51313;BME280;37397;53.226;10.400;2022-07-09T04:54:53;101990.50;;;18.18;58.53
51313;BME280;37397;53.226;10.400;2022-07-09T04:57:20;102004.72;;;18.22;58.38
51313;BME280;37397;53.226;10.400;2022-07-09T04:59:47;102006.53;;;18.19;58.38
51313;BME280;37397;53.226;10.400;2022-07-09T05:02:13;102014.47;;;18.25;58.71
51313;BME280;37397;53.226;10.400;2022-07-09T05:04:40;102003.69;;;18.25;58.66
51313;BME280;37397;53.226;10.400;2022-07-09T05:07:07;102009.25;;;18.29;59.38
51313;BME280;37397;53.226;10.400;2022-07-09T05:09:33;102008.69;;;18.25;58.67
51313;BME280;37397;53.226;10.400;2022-07-09T05:12:00;102004.28;;;18.29;58.91
51313;BME280;37397;53.226;10.400;2022-07-09T05:14:26;101998.19;;;18.27;58.76
51313;BME280;37397;53.226;10.400;2022-07-09T05:16:53;101985.94;;;18.32;58.73
51313;BME280;37397;53.226;10.400;2022-07-09T05:19:20;101995.09;;;18.31;58.71
51313;BME280;37397;53.226;10.400;2022-07-09T05:21:46;101998.56;;;18.35;58.76
51313;BME280;37397;53.226;10.400;2022-07-09T05:24:13;102001.44;;;18.35;58.49
51313;BME280;37397;53.226;10.400;2022-07-09T05:26:39;101996.75;;;18.37;58.55
51313;BME280;37397;53.226;10.400;2022-07-09T05:29:06;101990.16;;;18.37;58.33
51313;BME280;37397;53.226;10.400;2022-07-09T05:31:32;101989.66;;;18.38;58.74
51313;BME280;37397;53.226;10.400;2022-07-09T05:34:01;101989.13;;;18.40;58.44
51313;BME280;37397;53.226;10.400;2022-07-09T05:36:28;101981.06;;;18.44;58.16
51313;BME280;37397;53.226;10.400;2022-07-09T05:38:56;101983.66;;;18.42;58.20
51313;BME280;37397;53.226;10.400;2022-07-09T05:41:22;101988.44;;;18.45;58.05
51313;BME280;37397;53.226;10.400;2022-07-09T05:43:51;101981.84;;;18.45;58.31
51313;BME280;37397;53.226;10.400;2022-07-09T05:46:17;101985.03;;;18.47;58.26
51313;BME280;37397;53.226;10.400;2022-07-09T05:48:44;101988.19;;;18.49;58.36
51313;BME280;37397;53.226;10.400;2022-07-09T05:51:11;101984.81;;;18.50;58.51
51313;BME280;37397;53.226;10.400;2022-07-09T05:53:37;101984.00;;;18.50;58.59
51313;BME280;37397;53.226;10.400;2022-07-09T05:56:04;101985.34;;;18.54;59.11
51313;BME280;37397;53.226;10.400;2022-07-09T05:58:31;101985.34;;;18.54;59.08
51313;BME280;37397;53.226;10.400;2022-07-09T06:00:58;101975.66;;;18.57;59.09
51313;BME280;37397;53.226;10.400;2022-07-09T06:03:24;101974.09;;;18.56;59.11
51313;BME280;37397;53.226;10.400;2022-07-09T06:05:51;101974.66;;;18.61;59.25
51313;BME280;37397;53.226;10.400;2022-07-09T06:08:18;101973.63;;;18.64;59.26
51313;BME280;37397;53.226;10.400;2022-07-09T06:10:44;101982.06;;;18.67;59.64
51313;BME280;37397;53.226;10.400;2022-07-09T06:13:11;101979.16;;;18.67;59.96
51313;BME280;37397;53.226;10.400;2022-07-09T06:15:37;101975.50;;;18.67;59.78
51313;BME280;37397;53.226;10.400;2022-07-09T06:18:04;101991.81;;;18.70;59.78
51313;BME280;37397;53.226;10.400;2022-07-09T06:20:31;101971.59;;;18.70;60.21
51313;BME280;37397;53.226;10.400;2022-07-09T06:23:05;101976.63;;;18.75;59.97
51313;BME280;37397;53.226;10.400;2022-07-09T06:25:31;101979.78;;;18.77;60.28
51313;BME280;37397;53.226;10.400;2022-07-09T06:27:58;101979.78;;;18.77;60.21
51313;BME280;37397;53.226;10.400;2022-07-09T06:30:24;101978.75;;;18.80;59.75
51313;BME280;37397;53.226;10.400;2022-07-09T06:32:51;101981.66;;;18.80;59.67
51313;BME280;37397;53.226;10.400;2022-07-09T06:35:18;101973.28;;;18.82;59.40
51313;BME280;37397;53.226;10.400;2022-07-09T06:37:44;101968.06;;;18.86;59.74
51313;BME280;37397;53.226;10.400;2022-07-09T06:40:11;101974.13;;;18.88;59.54
51313;BME280;37397;53.226;10.400;2022-07-09T06:42:39;101969.94;;;18.89;59.82
51313;BME280;37397;53.226;10.400;2022-07-09T06:45:15;101977.31;;;18.90;59.30
51313;BME280;37397;53.226;10.400;2022-07-09T06:47:43;101974.72;;;18.92;59.45
51313;BME280;37397;53.226;10.400;2022-07-09T06:50:10;101973.69;;;18.95;59.58
51313;BME280;37397;53.226;10.400;2022-07-09T06:52:36;101971.84;;;18.98;59.40
51313;BME280;37397;53.226;10.400;2022-07-09T06:55:03;101960.28;;;18.98;59.51
51313;BME280;37397;53.226;10.400;2022-07-09T06:57:30;101953.69;;;18.98;59.79
51313;BME280;37397;53.226;10.400;2022-07-09T06:59:57;101958.47;;;19.01;59.74
51313;BME280;37397;53.226;10.400;2022-07-09T07:02:24;101961.34;;;19.01;59.86
51313;BME280;37397;53.226;10.400;2022-07-09T07:04:50;101970.59;;;19.05;60.17
51313;BME280;37397;53.226;10.400;2022-07-09T07:07:17;101970.59;;;19.05;60.37
51313;BME280;37397;53.226;10.400;2022-07-09T07:09:44;101971.66;;;19.07;60.75
51313;BME280;37397;53.226;10.400;2022-07-09T07:12:10;101970.63;;;19.10;60.71
51313;BME280;37397;53.226;10.400;2022-07-09T07:14:37;101955.13;;;19.13;61.02
51313;BME280;37397;53.226;10.400;2022-07-09T07:17:04;101954.91;;;19.17;60.51
51313;BME280;37397;53.226;10.400;2022-07-09T07:19:31;101953.28;;;19.10;61.27
51313;BME280;37397;53.226;10.400;2022-07-09T07:21:58;101960.69;;;19.17;60.88
51313;BME280;37397;53.226;10.400;2022-07-09T07:24:24;101958.34;;;19.21;60.75
51313;BME280;37397;53.226;10.400;2022-07-09T07:26:51;101968.41;;;19.26;60.45
51313;BME280;37397;53.226;10.400;2022-07-09T07:29:18;101967.34;;;19.29;60.86
51313;BME280;37397;53.226;10.400;2022-07-09T07:31:45;101970.28;;;19.35;60.84
51313;BME280;37397;53.226;10.400;2022-07-09T07:34:11;101966.09;;;19.36;61.44
51313;BME280;37397;53.226;10.400;2022-07-09T07:36:38;101967.66;;;19.37;61.33
51313;BME280;37397;53.226;10.400;2022-07-09T07:39:04;101965.31;;;19.41;60.83
51313;BME280;37397;53.226;10.400;2022-07-09T07:41:31;101967.19;;;19.44;61.26
51313;BME280;37397;53.226;10.400;2022-07-09T07:43:58;101963.00;;;19.45;61.60
51313;BME280;37397;53.226;10.400;2022-07-09T07:46:24;101961.16;;;19.47;61.76
51313;BME280;37397;53.226;10.400;2022-07-09T07:48:51;101961.72;;;19.52;61.34
51313;BME280;37397;53.226;10.400;2022-07-09T07:51:17;101964.09;;;19.53;61.05
51313;BME280;37397;53.226;10.400;2022-07-09T07:53:44;101962.22;;;19.50;61.82
51313;BME280;37397;53.226;10.400;2022-07-09T07:56:11;101964.88;;;19.59;61.31
51313;BME280;37397;53.226;10.400;2022-07-09T07:58:37;101960.97;;;19.62;61.91
51313;BME280;37397;53.226;10.400;2022-07-09T08:03:30;101955.22;;;19.68;62.71
51313;BME280;37397;53.226;10.400;2022-07-09T08:05:59;101954.69;;;19.70;61.80
51313;BME280;37397;53.226;10.400;2022-07-09T08:08:26;101942.06;;;19.73;61.93
51313;BME280;37397;53.226;10.400;2022-07-09T08:10:52;101937.91;;;19.79;61.23
51313;BME280;37397;53.226;10.400;2022-07-09T08:13:19;101944.78;;;19.82;61.73
51313;BME280;37397;53.226;10.400;2022-07-09T08:15:46;101939.50;;;19.86;61.92
51313;BME280;37397;53.226;10.400;2022-07-09T08:18:13;101939.78;;;19.88;61.69
51313;BME280;37397;53.226;10.400;2022-07-09T08:20:41;101938.50;;;19.95;61.58
51313;BME280;37397;53.226;10.400;2022-07-09T08:23:08;101941.16;;;19.98;61.21
51313;BME280;37397;53.226;10.400;2022-07-09T08:25:35;101939.56;;;19.97;61.49
51313;BME280;37397;53.226;10.400;2022-07-09T08:28:02;101939.06;;;20.04;61.30
51313;BME280;37397;53.226;10.400;2022-07-09T08:30:29;101934.84;;;20.06;61.18
51313;BME280;37397;53.226;10.400;2022-07-09T08:32:56;101934.56;;;20.09;61.38
51313;BME280;37397;53.226;10.400;2022-07-09T08:35:22;101945.94;;;20.13;61.01
51313;BME280;37397;53.226;10.400;2022-07-09T08:37:52;101936.19;;;20.16;61.32
51313;BME280;37397;53.226;10.400;2022-07-09T08:40:19;101939.63;;;20.14;61.08
51313;BME280;37397;53.226;10.400;2022-07-09T08:42:47;101928.03;;;20.14;61.81
51313;BME280;37397;53.226;10.400;2022-07-09T08:45:16;101932.78;;;20.23;61.46
51313;BME280;37397;53.226;10.400;2022-07-09T08:47:43;101922.78;;;20.24;61.40
51313;BME280;37397;53.226;10.400;2022-07-09T08:50:10;101925.41;;;20.33;61.09
51313;BME280;37397;53.226;10.400;2022-07-09T08:52:39;101925.97;;;20.37;61.03
51313;BME280;37397;53.226;10.400;2022-07-09T08:55:09;101923.31;;;20.39;61.18
51313;BME280;37397;53.226;10.400;2022-07-09T08:57:37;101923.59;;;20.42;61.00
51313;BME280;37397;53.226;10.400;2022-07-09T09:00:05;101924.91;;;20.40;60.83
51313;BME280;37397;53.226;10.400;2022-07-09T09:02:36;101921.47;;;20.48;60.48
51313;BME280;37397;53.226;10.400;2022-07-09T09:05:11;101911.50;;;20.54;60.36
51313;BME280;37397;53.226;10.400;2022-07-09T09:07:39;101910.69;;;20.54;60.52
51313;BME280;37397;53.226;10.400;2022-07-09T09:10:06;101907.25;;;20.55;60.55
51313;BME280;37397;53.226;10.400;2022-07-09T09:12:33;101910.16;;;20.61;60.24
51313;BME280;37397;53.226;10.400;2022-07-09T09:15:04;101910.72;;;20.65;60.00
51313;BME280;37397;53.226;10.400;2022-07-09T09:17:31;101907.28;;;20.67;60.25
51313;BME280;37397;53.226;10.400;2022-07-09T09:19:57;101905.97;;;20.73;60.13
51313;BME280;37397;53.226;10.400;2022-07-09T09:22:24;101915.47;;;20.74;59.75
51313;BME280;37397;53.226;10.400;2022-07-09T09:24:50;101900.16;;;20.73;60.10
51313;BME280;37397;53.226;10.400;2022-07-09T09:27:17;101903.06;;;20.79;59.98
51313;BME280;37397;53.226;10.400;2022-07-09T09:29:50;101903.06;;;20.79;59.79
51313;BME280;37397;53.226;10.400;2022-07-09T09:32:20;101895.69;;;20.84;59.85
51313;BME280;37397;53.226;10.400;2022-07-09T09:34:51;101903.06;;;20.85;59.95
51313;BME280;37397;53.226;10.400;2022-07-09T09:37:27;101903.34;;;20.87;59.71
51313;BME280;37397;53.226;10.400;2022-07-09T09:39:55;101889.09;;;20.89;59.52
51313;BME280;37397;53.226;10.400;2022-07-09T09:42:23;101887.47;;;20.99;59.38
51313;BME280;37397;53.226;10.400;2022-07-09T09:44:51;101884.06;;;20.95;59.46
51313;BME280;37397;53.226;10.400;2022-07-09T09:47:20;101884.03;;;21.01;59.62
51313;BME280;37397;53.226;10.400;2022-07-09T09:49:49;101894.09;;;21.00;59.37
51313;BME280;37397;53.226;10.400;2022-07-09T09:52:19;101891.97;;;21.00;59.23
51313;BME280;37397;53.226;10.400;2022-07-09T09:54:45;101877.97;;;21.10;58.85
51313;BME280;37397;53.226;10.400;2022-07-09T09:57:14;101880.88;;;21.10;58.91
51313;BME280;37397;53.226;10.400;2022-07-09T09:59:44;101862.13;;;21.17;58.79
51313;BME280;37397;53.226;10.400;2022-07-09T10:02:14;101863.44;;;21.10;58.57
51313;BME280;37397;53.226;10.400;2022-07-09T10:04:42;101866.84;;;21.20;57.87
51313;BME280;37397;53.226;10.400;2022-07-09T10:07:14;101863.97;;;21.14;57.41
51313;BME280;37397;53.226;10.400;2022-07-09T10:09:52;101859.22;;;21.22;57.74
51313;BME280;37397;53.226;10.400;2022-07-09T10:12:26;101851.53;;;21.25;57.63
51313;BME280;37397;53.226;10.400;2022-07-09T10:14:53;101855.00;;;21.18;57.71
51313;BME280;37397;53.226;10.400;2022-07-09T10:17:20;101845.22;;;21.21;57.68
51313;BME280;37397;53.226;10.400;2022-07-09T10:19:57;101854.72;;;21.27;57.72
51313;BME280;37397;53.226;10.400;2022-07-09T10:22:36;101852.06;;;21.29;57.71
51313;BME280;37397;53.226;10.400;2022-07-09T10:25:04;101861.00;;;21.37;57.39
51313;BME280;37397;53.226;10.400;2022-07-09T10:27:47;101854.44;;;21.30;57.13
51313;BME280;37397;53.226;10.400;2022-07-09T10:30:23;101848.03;;;21.38;57.04
51313;BME280;37397;53.226;10.400;2022-07-09T10:33:37;101848.84;;;21.38;56.75
51313;BME280;37397;53.226;10.400;2022-07-09T10:36:11;101841.97;;;21.41;56.97
51313;BME280;37397;53.226;10.400;2022-07-09T10:38:40;101857.53;;;21.44;57.22
51313;BME280;37397;53.226;10.400;2022-07-09T10:41:06;101857.25;;;21.47;56.78
51313;BME280;37397;53.226;10.400;2022-07-09T10:43:52;101853.06;;;21.48;56.77
51313;BME280;37397;53.226;10.400;2022-07-09T10:46:29;101858.31;;;21.44;56.76
51313;BME280;37397;53.226;10.400;2022-07-09T10:48:58;101852.78;;;21.46;56.51
51313;BME280;37397;53.226;10.400;2022-07-09T10:51:26;101831.41;;;21.49;56.53
51313;BME280;37397;53.226;10.400;2022-07-09T10:53:53;101833.25;;;21.53;56.71
51313;BME280;37397;53.226;10.400;2022-07-09T10:56:20;101832.91;;;21.62;56.50
51313;BME280;37397;53.226;10.400;2022-07-09T10:58:48;101831.38;;;21.61;56.72
51313;BME280;37397;53.226;10.400;2022-07-09T11:01:23;101835.56;;;21.60;56.76
51313;BME280;37397;53.226;10.400;2022-07-09T11:03:54;101848.78;;;21.61;56.75
51313;BME280;37397;53.226;10.400;2022-07-09T11:06:23;101832.66;;;21.65;56.75
51313;BME280;37397;53.226;10.400;2022-07-09T11:08:50;101845.81;;;21.72;56.78
51313;BME280;37397;53.226;10.400;2022-07-09T11:11:23;101841.25;;;21.82;56.56
51313;BME280;37397;53.226;10.400;2022-07-09T11:13:51;101828.06;;;21.81;56.45
51313;BME280;37397;53.226;10.400;2022-07-09T11:16:24;101835.44;;;21.82;56.41
51313;BME280;37397;53.226;10.400;2022-07-09T11:18:54;101825.69;;;21.80;56.39
51313;BME280;37397;53.226;10.400;2022-07-09T11:21:22;101821.44;;;21.87;56.11
51313;BME280;37397;53.226;10.400;2022-07-09T11:23:49;101811.66;;;21.90;55.95
51313;BME280;37397;53.226;10.400;2022-07-09T11:26:16;101819.03;;;21.91;55.81
51313;BME280;37397;53.226;10.400;2022-07-09T11:28:47;101809.53;;;21.90;55.30
51313;BME280;37397;53.226;10.400;2022-07-09T11:31:16;101807.91;;;21.95;55.42
51313;BME280;37397;53.226;10.400;2022-07-09T11:33:43;101809.47;;;21.96;55.34
51313;BME280;37397;53.226;10.400;2022-07-09T11:36:39;101807.09;;;21.94;55.36
51313;BME280;37397;53.226;10.400;2022-07-09T11:39:06;101809.97;;;22.00;55.37
51313;BME280;37397;53.226;10.400;2022-07-09T11:41:45;101795.22;;;21.98;55.41
51313;BME280;37397;53.226;10.400;2022-07-09T11:44:28;101799.09;;;22.06;55.42
51313;BME280;37397;53.226;10.400;2022-07-09T11:47:07;101800.63;;;22.13;55.46
51313;BME280;37397;53.226;10.400;2022-07-09T11:49:37;101803.25;;;22.16;55.22
51313;BME280;37397;53.226;10.400;2022-07-09T11:52:17;101813.78;;;22.19;55.02
51313;BME280;37397;53.226;10.400;2022-07-09T11:55:02;101813.56;;;22.17;54.46
51313;BME280;37397;53.226;10.400;2022-07-09T11:57:30;101817.47;;;22.20;54.41
51313;BME280;37397;53.226;10.400;2022-07-09T11:59:57;101817.31;;;22.12;53.63
51313;BME280;37397;53.226;10.400;2022-07-09T12:02:31;101821.47;;;22.17;53.52
51313;BME280;37397;53.226;10.400;2022-07-09T12:05:01;101827.03;;;22.15;53.25
51313;BME280;37397;53.226;10.400;2022-07-09T12:07:30;101849.59;;;22.03;54.65
51313;BME280;37397;53.226;10.400;2022-07-09T12:10:01;101853.25;;;22.09;55.63
51313;BME280;37397;53.226;10.400;2022-07-09T12:12:28;101857.50;;;22.08;55.71
51313;BME280;37397;53.226;10.400;2022-07-09T12:14:54;101851.91;;;22.16;55.84
51313;BME280;37397;53.226;10.400;2022-07-09T12:17:31;101849.28;;;22.12;55.90
51313;BME280;37397;53.226;10.400;2022-07-09T12:20:01;101838.13;;;22.16;55.85
51313;BME280;37397;53.226;10.400;2022-07-09T12:22:33;101846.56;;;22.20;55.91
51313;BME280;37397;53.226;10.400;2022-07-09T12:25:02;101842.34;;;22.21;55.87
51313;BME280;37397;53.226;10.400;2022-07-09T12:27:28;101834.66;;;22.24;55.77
51313;BME280;37397;53.226;10.400;2022-07-09T12:29:56;101829.63;;;22.24;55.75
51313;BME280;37397;53.226;10.400;2022-07-09T12:32:25;101831.47;;;22.21;55.86
51313;BME280;37397;53.226;10.400;2022-07-09T12:34:51;101828.84;;;22.24;55.76
51313;BME280;37397;53.226;10.400;2022-07-09T12:37:18;101836.22;;;22.25;55.75
51313;BME280;37397;53.226;10.400;2022-07-09T12:39:45;101825.66;;;22.21;55.88
51313;BME280;37397;53.226;10.400;2022-07-09T12:42:18;101819.13;;;22.15;56.05
51313;BME280;37397;53.226;10.400;2022-07-09T12:44:46;101818.00;;;22.24;55.80
51313;BME280;37397;53.226;10.400;2022-07-09T12:47:14;101821.94;;;22.27;55.76